createdAt,value
2022-11-29T00:01:39.068Z,69.57
2022-11-29T00:04:06.583Z,68.95
2022-11-29T00:06:35.119Z,60.33
2022-11-29T00:09:07.497Z,65.45
2022-11-29T00:11:56.051Z,72.13
2022-11-29T00:14:25.163Z,69.28
2022-11-29T00:16:55.891Z,85.72
2022-11-29T00:19:23.270Z,80.75
2022-11-29T00:21:50.355Z,59.83
2022-11-29T00:24:17.620Z,67.38
2022-11-29T00:26:44.415Z,65.07
2022-11-29T00:29:13.084Z,61.33
2022-11-29T00:31:41.040Z,59.92
2022-11-29T00:34:11.387Z,59.47
2022-11-29T00:36:39.473Z,59.03
2022-11-29T00:39:06.842Z,65.45
2022-11-29T00:41:33.807Z,58.78
2022-11-29T00:44:00.801Z,66.03
2022-11-29T00:46:27.725Z,61.65
2022-11-29T00:48:54.612Z,55.70
2022-11-29T00:51:21.382Z,70.53
2022-11-29T00:53:48.228Z,63.10
2022-11-29T00:56:15.037Z,69.05
2022-11-29T00:58:43.572Z,68.43
2022-11-29T01:01:11.741Z,70.45
2022-11-29T01:03:38.746Z,67.20
2022-11-29T01:06:12.698Z,65.70
2022-11-29T01:08:40.580Z,66.45
2022-11-29T01:11:16.574Z,61.20
2022-11-29T01:13:44.113Z,64.53
2022-11-29T01:16:11.898Z,58.53
2022-11-29T01:18:39.654Z,61.00
2022-11-29T01:21:19.996Z,59.72
2022-11-29T01:23:48.535Z,53.75
2022-11-29T01:26:20.895Z,54.95
2022-11-29T01:28:52.174Z,62.78
2022-11-29T01:31:26.445Z,61.20
2022-11-29T01:33:55.558Z,57.65
2022-11-29T01:36:23.679Z,54.35
2022-11-29T01:38:50.669Z,55.08
2022-11-29T01:41:25.570Z,65.60
2022-11-29T01:44:28.326Z,60.58
2022-11-29T01:46:57.021Z,59.47
2022-11-29T01:49:32.406Z,55.83
2022-11-29T01:52:08.239Z,50.90
2022-11-29T01:54:42.095Z,54.20
2022-11-29T01:57:10.142Z,48.50
2022-11-29T01:59:43.739Z,52.47
2022-11-29T02:02:20.152Z,54.28
2022-11-29T02:04:48.858Z,47.10
2022-11-29T02:07:16.543Z,46.20
2022-11-29T02:09:43.309Z,50.38
2022-11-29T02:12:52.774Z,46.67
2022-11-29T02:16:00.949Z,49.13
2022-11-29T02:18:52.686Z,41.42
2022-11-29T02:21:38.029Z,48.17
2022-11-29T02:24:48.054Z,63.63
2022-11-29T02:28:03.990Z,45.40
2022-11-29T02:30:54.825Z,51.90
2022-11-29T02:33:30.435Z,44.17
2022-11-29T02:36:31.334Z,47.95
2022-11-29T02:39:25.469Z,72.05
2022-11-29T02:42:55.793Z,54.45
2022-11-29T02:45:58.587Z,58.10
2022-11-29T02:48:46.902Z,68.50
2022-11-29T02:51:25.676Z,61.97
2022-11-29T02:54:26.631Z,62.60
2022-11-29T02:57:14.446Z,57.30
2022-11-29T03:00:05.822Z,56.40
2022-11-29T03:02:42.583Z,59.22
2022-11-29T03:05:27.542Z,54.28
2022-11-29T03:08:21.554Z,67.13
2022-11-29T03:11:18.375Z,48.25
2022-11-29T03:14:17.260Z,44.67
2022-11-29T03:17:25.478Z,54.42
2022-11-29T03:20:27.934Z,46.58
2022-11-29T03:23:14.885Z,79.55
2022-11-29T03:26:10.529Z,61.50
2022-11-29T03:28:54.957Z,52.15
2022-11-29T03:31:26.467Z,86.68
2022-11-29T03:34:19.429Z,55.60
2022-11-29T03:36:59.914Z,78.55
2022-11-29T03:39:45.023Z,69.57
2022-11-29T03:42:25.105Z,55.00
2022-11-29T03:45:24.325Z,113.35
2022-11-29T03:48:23.502Z,76.25
2022-11-29T03:51:27.722Z,120.93
2022-11-29T03:54:02.377Z,76.20
2022-11-29T03:56:34.848Z,65.03
2022-11-29T03:59:19.018Z,61.25
2022-11-29T04:01:54.656Z,67.60
2022-11-29T04:05:14.579Z,73.72
2022-11-29T04:08:21.458Z,54.45
2022-11-29T04:11:10.410Z,62.15
2022-11-29T04:13:58.454Z,75.82
2022-11-29T04:17:25.422Z,70.22
2022-11-29T04:20:16.246Z,45.60
2022-11-29T04:23:17.832Z,62.22
2022-11-29T04:26:47.754Z,74.28
2022-11-29T04:29:45.523Z,51.65
2022-11-29T04:32:22.260Z,55.15
2022-11-29T04:35:20.870Z,92.50
2022-11-29T04:38:15.521Z,78.85
2022-11-29T04:41:14.647Z,53.35
2022-11-29T04:44:02.079Z,67.53
2022-11-29T04:46:41.514Z,71.88
2022-11-29T04:50:01.599Z,69.88
2022-11-29T04:53:20.735Z,67.43
2022-11-29T04:56:21.542Z,44.05
2022-11-29T04:59:12.721Z,47.85
2022-11-29T05:02:13.889Z,43.65
2022-11-29T05:05:08.079Z,56.28
2022-11-29T05:07:58.790Z,67.43
2022-11-29T05:10:40.358Z,47.72
2022-11-29T05:13:40.593Z,38.67
2022-11-29T05:16:16.529Z,43.53
2022-11-29T05:19:07.969Z,60.70
2022-11-29T05:22:06.590Z,46.13
2022-11-29T05:25:19.872Z,62.30
2022-11-29T05:28:25.969Z,76.60
2022-11-29T05:31:25.784Z,36.35
2022-11-29T05:34:14.346Z,42.65
2022-11-29T05:37:12.498Z,66.47
2022-11-29T05:39:42.098Z,81.95
2022-11-29T05:42:38.479Z,55.47
2022-11-29T05:45:27.472Z,76.18
2022-11-29T05:48:13.738Z,74.88
2022-11-29T05:51:00.483Z,60.38
2022-11-29T05:53:41.061Z,52.90
2022-11-29T05:56:40.370Z,38.92
2022-11-29T05:59:19.054Z,42.85
2022-11-29T06:01:55.693Z,63.35
2022-11-29T06:04:38.473Z,67.45
2022-11-29T06:07:32.158Z,49.25
2022-11-29T06:10:18.424Z,40.97
2022-11-29T06:13:21.909Z,52.15
2022-11-29T06:16:29.575Z,37.55
2022-11-29T06:19:28.278Z,67.20
2022-11-29T06:22:41.034Z,41.30
2022-11-29T06:25:59.466Z,36.25
2022-11-29T06:29:23.810Z,46.03
2022-11-29T06:32:10.886Z,43.55
2022-11-29T06:35:04.291Z,44.63
2022-11-29T06:37:54.750Z,46.28
2022-11-29T06:40:21.863Z,41.53
2022-11-29T06:42:48.910Z,42.30
2022-11-29T06:45:17.010Z,35.67
2022-11-29T06:47:56.724Z,42.50
2022-11-29T06:51:13.150Z,42.13
2022-11-29T06:54:01.030Z,30.90
2022-11-29T06:56:55.594Z,40.78
2022-11-29T06:59:38.213Z,29.33
2022-11-29T07:02:44.410Z,38.15
2022-11-29T07:05:26.027Z,36.65
2022-11-29T07:07:58.134Z,27.10
2022-11-29T07:10:26.632Z,27.50
2022-11-29T07:12:53.765Z,28.00
2022-11-29T07:15:22.633Z,31.00
2022-11-29T07:18:05.495Z,28.85
2022-11-29T07:20:58.978Z,43.15
2022-11-29T07:23:45.172Z,36.85
2022-11-29T07:26:31.369Z,41.00
2022-11-29T07:29:38.299Z,31.33
2022-11-29T07:32:26.093Z,38.00
2022-11-29T07:35:34.094Z,36.95
2022-11-29T07:38:21.886Z,41.17
2022-11-29T07:41:28.112Z,28.13
2022-11-29T07:44:25.732Z,38.03
2022-11-29T07:46:52.607Z,36.92
2022-11-29T07:49:19.438Z,41.38
2022-11-29T07:51:46.309Z,30.60
2022-11-29T07:54:18.510Z,36.35
2022-11-29T07:56:45.846Z,37.03
2022-11-29T07:59:12.916Z,30.25
2022-11-29T08:01:40.864Z,29.13
2022-11-29T08:04:08.805Z,25.13
2022-11-29T08:06:37.091Z,30.75
2022-11-29T08:09:05.058Z,27.15
2022-11-29T08:11:31.865Z,28.27
2022-11-29T08:14:02.682Z,31.33
2022-11-29T08:16:30.085Z,28.45
2022-11-29T08:18:57.011Z,25.00
2022-11-29T08:21:24.078Z,29.65
2022-11-29T08:23:51.546Z,34.55
2022-11-29T08:26:20.954Z,25.83
2022-11-29T08:28:52.233Z,28.50
2022-11-29T08:31:20.962Z,33.63
2022-11-29T08:33:48.146Z,31.83
2022-11-29T08:36:19.690Z,36.80
2022-11-29T08:38:47.998Z,27.92
2022-11-29T08:41:17.796Z,30.77
2022-11-29T08:43:45.095Z,40.70
2022-11-29T08:46:18.260Z,24.48
2022-11-29T08:48:49.490Z,23.83
2022-11-29T08:51:16.690Z,24.25
2022-11-29T08:53:44.533Z,23.75
2022-11-29T08:56:59.612Z,34.75
2022-11-29T08:59:01.329Z,44.45
2022-11-29T09:01:29.268Z,36.85
2022-11-29T09:03:59.426Z,25.45
2022-11-29T09:06:38.217Z,23.30
2022-11-29T09:09:06.354Z,44.25
2022-11-29T09:11:35.758Z,32.17
2022-11-29T09:14:07.954Z,24.58
2022-11-29T09:16:37.766Z,25.23
2022-11-29T09:19:06.153Z,26.38
2022-11-29T09:21:36.628Z,26.67
2022-11-29T09:24:06.395Z,24.45
2022-11-29T09:26:37.814Z,21.58
2022-11-29T09:29:06.956Z,21.38
2022-11-29T09:31:35.365Z,22.60
2022-11-29T09:34:02.299Z,28.80
2022-11-29T09:36:30.894Z,22.63
2022-11-29T09:38:59.302Z,20.70
2022-11-29T09:41:56.843Z,22.70
2022-11-29T09:44:55.950Z,20.55
2022-11-29T09:47:50.029Z,22.88
2022-11-29T09:50:35.426Z,23.23
2022-11-29T09:53:43.508Z,25.73
2022-11-29T09:56:40.652Z,21.60
2022-11-29T09:59:33.772Z,24.63
2022-11-29T10:02:20.860Z,24.73
2022-11-29T10:05:02.939Z,30.38
2022-11-29T10:07:54.088Z,30.92
2022-11-29T10:10:33.569Z,26.00
2022-11-29T10:13:25.239Z,25.92
2022-11-29T10:16:01.402Z,22.88
2022-11-29T10:18:48.717Z,27.98
2022-11-29T10:21:28.375Z,24.15
2022-11-29T10:24:02.627Z,25.33
2022-11-29T10:26:34.779Z,20.90
2022-11-29T10:29:02.587Z,23.23
2022-11-29T10:31:42.769Z,23.48
2022-11-29T10:34:25.971Z,23.02
2022-11-29T10:36:59.790Z,24.40
2022-11-29T10:39:53.026Z,25.27
2022-11-29T10:42:42.065Z,23.17
2022-11-29T10:45:25.870Z,25.25
2022-11-29T10:48:02.279Z,24.55
2022-11-29T10:50:34.358Z,23.55
2022-11-29T10:53:25.318Z,25.95
2022-11-29T10:56:08.903Z,24.95
2022-11-29T10:58:36.428Z,26.15
2022-11-29T11:01:08.566Z,27.58
2022-11-29T11:03:54.219Z,24.02
2022-11-29T11:06:27.192Z,23.63
2022-11-29T11:09:11.085Z,23.63
2022-11-29T11:11:39.461Z,20.27
2022-11-29T11:14:28.937Z,25.45
2022-11-29T11:16:56.747Z,25.80
2022-11-29T11:19:33.346Z,25.52
2022-11-29T11:22:03.999Z,24.13
2022-11-29T11:24:36.381Z,22.02
2022-11-29T11:27:04.094Z,22.17
2022-11-29T11:29:44.298Z,23.88
2022-11-29T11:32:20.038Z,25.90
2022-11-29T11:34:59.517Z,25.08
2022-11-29T11:37:28.825Z,24.65
2022-11-29T11:40:18.836Z,25.98
2022-11-29T11:42:46.783Z,28.30
2022-11-29T11:45:13.508Z,27.15
2022-11-29T11:47:57.886Z,25.80
2022-11-29T11:50:31.355Z,24.23
2022-11-29T11:53:04.062Z,20.67
2022-11-29T11:55:40.433Z,22.20
2022-11-29T11:58:13.014Z,21.27
2022-11-29T12:01:04.294Z,23.38
2022-11-29T12:03:37.708Z,22.63
2022-11-29T12:06:30.099Z,25.10
2022-11-29T12:09:18.456Z,29.92
2022-11-29T12:12:00.037Z,27.08
2022-11-29T12:14:45.115Z,35.67
2022-11-29T12:17:43.708Z,32.92
2022-11-29T12:20:21.795Z,34.15
2022-11-29T12:23:11.595Z,29.42
2022-11-29T12:25:58.852Z,31.05
2022-11-29T12:28:34.772Z,29.70
2022-11-29T12:31:38.850Z,27.60
2022-11-29T12:34:56.582Z,26.45
2022-11-29T12:37:46.316Z,22.35
2022-11-29T12:40:32.567Z,24.00
2022-11-29T12:43:40.998Z,26.30
2022-11-29T12:46:25.753Z,23.73
2022-11-29T12:49:23.022Z,25.42
2022-11-29T12:52:05.824Z,23.73
2022-11-29T12:54:51.509Z,25.35
2022-11-29T12:57:40.502Z,23.40
2022-11-29T13:00:14.668Z,25.20
2022-11-29T13:03:12.239Z,27.58
2022-11-29T13:05:58.678Z,25.08
2022-11-29T13:08:37.953Z,21.83
2022-11-29T13:11:40.111Z,17.35
2022-11-29T13:14:44.035Z,19.25
2022-11-29T13:17:51.235Z,21.00
2022-11-29T13:20:29.520Z,18.05
2022-11-29T13:24:11.932Z,18.92
2022-11-29T13:26:43.597Z,18.85
2022-11-29T13:29:18.610Z,22.00
2022-11-29T13:31:47.953Z,21.40
2022-11-29T13:34:44.444Z,34.53
2022-11-29T13:37:37.475Z,24.75
2022-11-29T13:40:39.938Z,23.67
2022-11-29T13:43:24.726Z,22.92
2022-11-29T13:46:16.618Z,22.35
2022-11-29T13:48:48.613Z,19.85
2022-11-29T13:51:41.779Z,19.92
2022-11-29T13:54:30.759Z,21.15
2022-11-29T13:57:06.160Z,23.02
2022-11-29T13:59:40.505Z,19.13
2022-11-29T14:02:43.607Z,18.45
2022-11-29T14:05:27.493Z,21.77
2022-11-29T14:08:23.201Z,21.48
2022-11-29T14:10:53.005Z,20.77
2022-11-29T14:13:31.514Z,24.67
2022-11-29T14:16:04.003Z,19.92
2022-11-29T14:18:42.751Z,19.00
2022-11-29T14:21:10.339Z,19.27
2022-11-29T14:23:42.650Z,20.70
2022-11-29T14:26:09.430Z,20.52
2022-11-29T14:28:39.895Z,19.42
2022-11-29T14:31:09.111Z,19.60
2022-11-29T14:34:17.874Z,18.70
2022-11-29T14:37:02.867Z,19.08
2022-11-29T14:39:47.844Z,18.42
2022-11-29T14:42:22.256Z,18.30
2022-11-29T14:44:57.604Z,19.45
2022-11-29T14:47:48.728Z,19.17
2022-11-29T14:50:39.325Z,18.13
2022-11-29T14:53:28.412Z,21.38
2022-11-29T14:56:35.154Z,21.17
2022-11-29T14:59:47.937Z,17.60
2022-11-29T15:02:39.428Z,16.67
2022-11-29T15:05:34.822Z,15.98
2022-11-29T15:08:34.776Z,16.45
2022-11-29T15:11:50.445Z,20.08
2022-11-29T15:14:51.426Z,16.73
2022-11-29T15:17:58.891Z,17.85
2022-11-29T15:20:57.171Z,17.90
2022-11-29T15:23:24.019Z,17.63
2022-11-29T15:25:59.565Z,19.33
2022-11-29T15:28:30.048Z,18.58
2022-11-29T15:31:09.713Z,18.90
2022-11-29T15:33:42.094Z,17.23
2022-11-29T15:36:18.948Z,17.27
2022-11-29T15:38:53.238Z,18.42
2022-11-29T15:41:31.935Z,19.60
2022-11-29T15:44:06.076Z,16.00
2022-11-29T15:46:35.542Z,20.85
2022-11-29T15:49:24.662Z,19.60
2022-11-29T15:51:59.555Z,21.42
2022-11-29T15:54:40.867Z,21.30
2022-11-29T15:57:42.755Z,19.15
2022-11-29T16:00:23.011Z,21.15
2022-11-29T16:03:04.876Z,26.95
2022-11-29T16:05:36.399Z,21.23
2022-11-29T16:08:15.978Z,23.00
2022-11-29T16:10:51.554Z,23.92
2022-11-29T16:13:41.255Z,22.95
2022-11-29T16:16:20.298Z,24.67
2022-11-29T16:18:49.987Z,35.95
2022-11-29T16:21:28.935Z,34.60
2022-11-29T16:23:57.579Z,34.55
2022-11-29T16:26:34.434Z,30.33
2022-11-29T16:29:01.910Z,29.52
2022-11-29T16:31:36.193Z,28.75
2022-11-29T16:34:33.034Z,26.42
2022-11-29T16:37:21.284Z,30.17
2022-11-29T16:39:52.586Z,28.83
2022-11-29T16:42:30.111Z,25.23
2022-11-29T16:45:33.348Z,24.65
2022-11-29T16:48:01.534Z,24.42
2022-11-29T16:50:31.441Z,28.52
2022-11-29T16:53:43.287Z,32.63
2022-11-29T16:56:15.794Z,24.95
2022-11-29T16:59:17.242Z,27.02
2022-11-29T17:01:33.160Z,27.45
2022-11-29T17:04:00.514Z,24.40
2022-11-29T17:06:29.874Z,24.70
2022-11-29T17:08:59.244Z,27.08
2022-11-29T17:11:26.957Z,23.05
2022-11-29T17:13:53.830Z,23.50
2022-11-29T17:16:23.970Z,23.60
2022-11-29T17:18:52.717Z,21.00
2022-11-29T17:21:26.549Z,35.67
2022-11-29T17:23:54.102Z,30.20
2022-11-29T17:26:22.095Z,34.85
2022-11-29T17:28:51.281Z,38.63
2022-11-29T17:31:22.422Z,37.70
2022-11-29T17:33:49.558Z,34.22
2022-11-29T17:36:19.889Z,35.42
2022-11-29T17:38:48.114Z,40.05
2022-11-29T17:41:20.726Z,45.72
2022-11-29T17:43:48.088Z,44.28
2022-11-29T17:46:24.633Z,39.08
2022-11-29T17:48:52.619Z,34.30
2022-11-29T17:51:50.577Z,45.17
2022-11-29T17:54:10.122Z,50.83
2022-11-29T17:56:36.917Z,47.17
2022-11-29T17:59:04.714Z,33.45
2022-11-29T18:01:34.842Z,51.92
2022-11-29T18:04:05.498Z,40.10
2022-11-29T18:06:39.731Z,27.13
2022-11-29T18:09:09.071Z,23.23
2022-11-29T18:11:48.072Z,33.17
2022-11-29T18:14:20.409Z,25.75
2022-11-29T18:16:47.426Z,27.33
2022-11-29T18:19:18.822Z,30.27
2022-11-29T18:21:46.542Z,23.63
2022-11-29T18:24:13.891Z,21.42
2022-11-29T18:26:41.462Z,20.02
2022-11-29T18:29:09.475Z,19.13
2022-11-29T18:31:40.994Z,20.02
2022-11-29T18:34:11.124Z,23.05
2022-11-29T18:36:44.928Z,38.30
2022-11-29T18:39:18.833Z,44.75
2022-11-29T18:41:50.157Z,31.85
2022-11-29T18:44:21.323Z,27.83
2022-11-29T18:46:48.630Z,27.60
2022-11-29T18:49:17.970Z,26.50
2022-11-29T18:51:46.327Z,26.27
2022-11-29T18:54:15.857Z,24.35
2022-11-29T18:56:44.350Z,30.73
2022-11-29T18:59:17.043Z,27.50
2022-11-29T19:01:47.493Z,29.92
2022-11-29T19:04:20.609Z,22.35
2022-11-29T19:06:48.043Z,22.85
2022-11-29T19:09:20.835Z,21.40
2022-11-29T19:11:49.382Z,21.25
2022-11-29T19:14:16.672Z,20.83
2022-11-29T19:16:47.475Z,24.20
2022-11-29T19:19:14.586Z,21.17
2022-11-29T19:21:41.944Z,17.95
2022-11-29T19:24:14.557Z,23.00
2022-11-29T19:26:44.605Z,21.52
2022-11-29T19:29:13.492Z,21.15
2022-11-29T19:31:40.467Z,19.83
2022-11-29T19:34:07.523Z,16.38
2022-11-29T19:36:34.400Z,17.02
2022-11-29T19:39:02.215Z,17.15
2022-11-29T19:41:32.711Z,17.35
2022-11-29T19:44:06.423Z,16.40
2022-11-29T19:46:37.713Z,17.70
2022-11-29T19:49:07.267Z,14.85
2022-11-29T19:51:35.983Z,49.50
2022-11-29T19:54:06.321Z,87.40
2022-11-29T19:56:33.524Z,33.70
2022-11-29T19:59:00.342Z,20.55
2022-11-29T20:01:37.901Z,13.68
2022-11-29T20:04:07.374Z,14.75
2022-11-29T20:06:34.477Z,16.15
2022-11-29T20:09:02.134Z,15.77
2022-11-29T20:11:29.195Z,28.88
2022-11-29T20:13:59.970Z,21.92
2022-11-29T20:16:29.513Z,17.05
2022-11-29T20:18:57.892Z,16.88
2022-11-29T20:21:32.423Z,13.05
2022-11-29T20:24:03.807Z,14.52
2022-11-29T20:26:34.767Z,16.80
2022-11-29T20:29:02.158Z,15.50
2022-11-29T20:31:29.689Z,16.38
2022-11-29T20:34:00.160Z,17.48
2022-11-29T20:37:08.252Z,12.57
2022-11-29T20:40:09.156Z,12.32
2022-11-29T20:42:52.550Z,14.13
2022-11-29T20:45:19.803Z,12.57
2022-11-29T20:48:23.046Z,15.25
2022-11-29T20:51:01.554Z,13.38
2022-11-29T20:53:40.167Z,14.32
2022-11-29T20:56:08.427Z,13.85
2022-11-29T20:58:35.341Z,12.10
2022-11-29T21:01:02.866Z,12.57
2022-11-29T21:03:30.255Z,15.35
2022-11-29T21:06:01.591Z,15.77
2022-11-29T21:08:29.077Z,13.00
2022-11-29T21:11:06.587Z,13.45
2022-11-29T21:13:34.412Z,11.98
2022-11-29T21:16:01.979Z,11.70
2022-11-29T21:18:31.399Z,12.52
2022-11-29T21:21:14.024Z,14.07
2022-11-29T21:24:23.185Z,13.38
2022-11-29T21:26:53.411Z,13.38
2022-11-29T21:29:22.903Z,13.45
2022-11-29T21:31:54.946Z,13.32
2022-11-29T21:34:22.136Z,15.20
2022-11-29T21:36:56.843Z,12.38
2022-11-29T21:39:32.069Z,12.73
2022-11-29T21:41:59.105Z,15.40
2022-11-29T21:44:25.938Z,14.85
2022-11-29T21:46:52.815Z,12.93
2022-11-29T21:49:19.631Z,10.38
2022-11-29T21:51:46.362Z,12.93
2022-11-29T21:54:13.242Z,12.73
2022-11-29T21:56:40.011Z,12.10
2022-11-29T21:59:06.762Z,13.43
2022-11-29T22:01:33.846Z,11.30
2022-11-29T22:04:01.095Z,10.98
2022-11-29T22:06:29.256Z,13.15
2022-11-29T22:08:56.413Z,13.13
2022-11-29T22:11:35.198Z,16.58
2022-11-29T22:14:15.818Z,12.45
2022-11-29T22:17:09.048Z,11.23
2022-11-29T22:19:36.366Z,12.95
2022-11-29T22:22:06.351Z,10.13
2022-11-29T22:24:36.311Z,11.02
2022-11-29T22:27:03.610Z,13.43
2022-11-29T22:29:30.461Z,20.60
2022-11-29T22:31:59.247Z,12.65
2022-11-29T22:34:27.541Z,12.93
2022-11-29T22:36:54.880Z,14.00
2022-11-29T22:39:23.914Z,13.23
2022-11-29T22:41:54.606Z,14.93
2022-11-29T22:44:24.812Z,12.30
2022-11-29T22:46:51.874Z,11.32
2022-11-29T22:49:18.783Z,13.20
2022-11-29T22:51:45.623Z,12.00
2022-11-29T22:54:15.283Z,15.13
2022-11-29T22:56:44.351Z,13.80
2022-11-29T22:59:11.546Z,11.23
2022-11-29T23:01:40.980Z,16.13
2022-11-29T23:04:10.300Z,12.25
2022-11-29T23:06:41.853Z,14.38
2022-11-29T23:09:22.213Z,11.65
2022-11-29T23:11:53.647Z,14.85
2022-11-29T23:14:22.343Z,14.27
2022-11-29T23:16:49.462Z,10.80
2022-11-29T23:19:16.292Z,13.90
2022-11-29T23:21:45.685Z,15.70
2022-11-29T23:24:14.695Z,12.23
2022-11-29T23:26:45.961Z,16.10
2022-11-29T23:29:16.972Z,12.18
2022-11-29T23:31:44.436Z,15.18
2022-11-29T23:34:11.465Z,13.57
2022-11-29T23:36:38.534Z,14.80
2022-11-29T23:39:06.700Z,13.07
2022-11-29T23:41:35.616Z,15.80
2022-11-29T23:44:06.778Z,13.10
2022-11-29T23:46:35.698Z,13.98
2022-11-29T23:49:02.804Z,13.95
2022-11-29T23:51:29.649Z,13.48
2022-11-29T23:53:56.391Z,14.05
2022-11-29T23:56:23.151Z,13.23
2022-11-29T23:58:50.304Z,14.60
